Accueil
METAR-TAF:

METAR-TAF

Aéroports :

Aéroport de Porto-Francisco Sá-Carneiro

Porto, Portugal

latitude: 41-14N, longitude: 008-41W, altitude: 69 m

Observation

Le bulletin a été fait il y a 51 minutes, à 22:30 UTC
Vent calme
Température 11°C
Humidité 71%
Pression 1030 hPa
Visibilité 10 km ou plus
pas de nuages en-dessous de 1500 mètres et pas de cumulonimbus.

METAR: LPPR 212230Z 00000KT CAVOK 11/06 Q1030

Heure: 23:21 (23:21 UTC)

Prévision

Le bulletin a été fait il y a 6 heures et 21 minutes, à 17:00 UTC
Prévision valable du 21 à 18 UTC au 22 à 18 UTC
Vent 7 kt de nord/nord-ouest
Visibilité 10 km ou plus
pas de nuages en-dessous de 1500 mètres et pas de cumulonimbus.
Evoluant progressivement
du 21 à 21 UTC au 21 à 24 UTC
Vent 7 kt de est
Evoluant progressivement
du 22 à 09 UTC au 22 à 12 UTC
Vent 10 kt de nord

TAF: LPPR 211700Z 2118/2218 34007KT CAVOK BECMG 2121/2124 08007KT BECMG 2209/2212 35010KT

Observations et prévisions météorologiques de plus de 4000 aéroports (messages METAR et TAF).

Les stations disponibles sont représentées par des disques jaunes et rouges sur la carte.

Passer la souris dessus pour voir le nom de la station.

Cliquer dessus pour voir les observations et prévisions météorologiques.

Pour changer de carte: cliquez sur les boutons verts avec une croix noire pour zoomer, sur le bouton vert avec un tiret pour effectuer un zoom arrière, ou sur les flèches vertes pour les cartes adjacentes.


METAR-TAF: